Time;durP1;ratioP1;P1;durP2;ratioP2;P2;SDS_P1;SDS_P2;PMS_P1;PMS_P2;Temp;Humidity;BMP_temperature;BMP_pressure;BME280_temperature;BME280_humidity;BME280_pressure;Samples;Min_cycle;Max_cycle;Signal;HPM_P1;HPM_P2
2020/12/18 00:10:57;;;;;;;4.13;1.20;;;8.50;99.90;;;;;;5008365;28;20210;-90
2020/12/18 00:13:35;;;;;;;5.00;1.17;;;8.30;99.90;;;;;;4995800;28;20236;-91
2020/12/18 00:16:06;;;;;;;5.87;1.47;;;8.30;99.90;;;;;;4991567;28;20281;-90
2020/12/18 00:18:37;;;;;;;4.37;1.03;;;8.20;99.90;;;;;;5008996;28;20208;-92
2020/12/18 00:21:07;;;;;;;5.77;1.30;;;8.10;99.90;;;;;;4998329;28;20240;-91
2020/12/18 00:23:39;;;;;;;9.33;1.57;;;8.10;99.90;;;;;;5005425;28;20232;-91
2020/12/18 00:26:13;;;;;;;5.43;1.67;;;8.00;99.90;;;;;;5005701;28;20283;-91
2020/12/18 00:28:45;;;;;;;10.30;2.13;;;7.90;99.90;;;;;;5009228;28;20212;-91
2020/12/18 00:31:15;;;;;;;6.20;1.60;;;7.80;99.90;;;;;;5015437;28;20244;-92
2020/12/18 00:33:46;;;;;;;9.07;1.70;;;7.80;99.90;;;;;;5014452;28;20210;-91
2020/12/18 00:44:13;;;;;;;6.20;1.60;;;7.90;99.90;;;;;;4997946;28;20228;-89
2020/12/18 00:46:45;;;;;;;13.27;1.90;;;7.80;99.90;;;;;;4997209;28;20271;-91
2020/12/18 00:49:17;;;;;;;8.53;2.23;;;7.60;99.90;;;;;;4992397;28;20202;-91
2020/12/18 00:51:53;;;;;;;6.13;1.77;;;7.70;99.90;;;;;;5001227;28;20215;-91
2020/12/18 00:54:24;;;;;;;5.50;1.73;;;7.70;99.90;;;;;;5000109;28;20451;-90
2020/12/18 00:56:55;;;;;;;12.03;2.17;;;7.70;99.90;;;;;;5000204;28;20249;-92
2020/12/18 00:59:29;;;;;;;10.87;2.07;;;7.70;99.90;;;;;;5002838;28;20316;-95
2020/12/18 01:05:24;;;;;;;8.60;1.80;;;7.70;99.90;;;;;;5234483;23;20248;-92
2020/12/18 01:07:56;;;;;;;8.07;2.17;;;7.70;99.90;;;;;;4983653;28;20336;-93
2020/12/18 01:10:27;;;;;;;9.43;1.90;;;7.70;99.90;;;;;;4982782;28;20283;-93
2020/12/18 01:12:57;;;;;;;6.10;1.97;;;7.60;99.90;;;;;;4995746;28;20202;-95
2020/12/18 01:15:30;;;;;;;11.00;1.90;;;7.60;99.90;;;;;;5004029;28;20227;-95
2020/12/18 01:18:00;;;;;;;6.33;1.97;;;7.60;99.90;;;;;;5000761;28;20225;-94
2020/12/18 01:20:31;;;;;;;6.97;1.83;;;7.60;99.90;;;;;;4966836;28;20233;-95
2020/12/18 01:23:02;;;;;;;11.33;2.47;;;7.50;99.90;;;;;;5000660;28;20616;-96
2020/12/18 01:25:40;;;;;;;6.17;2.27;;;7.40;99.90;;;;;;4986462;28;20655;-96
2020/12/18 01:28:12;;;;;;;9.17;2.37;;;7.40;99.90;;;;;;5002601;28;20293;-93
2020/12/18 01:30:43;;;;;;;10.97;2.30;;;7.50;99.90;;;;;;4995840;28;20198;-92
2020/12/18 01:35:59;;;;;;;9.07;1.67;;;7.60;99.90;;;;;;4998028;28;20648;-92
2020/12/18 01:38:33;;;;;;;7.03;1.43;;;7.60;99.90;;;;;;4994038;28;20220;-92
2020/12/18 01:41:03;;;;;;;9.13;1.87;;;7.60;99.90;;;;;;4997749;28;20261;-92
2020/12/18 01:43:33;;;;;;;7.30;1.40;;;7.60;99.90;;;;;;5002198;28;20208;-92
2020/12/18 01:46:12;;;;;;;5.87;1.70;;;7.60;99.90;;;;;;4997517;28;20648;-92
2020/12/18 01:48:46;;;;;;;9.10;2.03;;;7.60;99.90;;;;;;5003436;28;20229;-91
2020/12/18 01:51:17;;;;;;;4.67;1.20;;;7.60;99.90;;;;;;4981737;28;20209;-91
2020/12/18 01:53:50;;;;;;;6.30;1.67;;;7.70;99.90;;;;;;4998884;28;20209;-92
2020/12/18 01:56:27;;;;;;;5.77;1.60;;;7.70;99.90;;;;;;4991716;28;20219;-90
2020/12/18 01:59:00;;;;;;;6.87;2.00;;;7.70;99.90;;;;;;4996628;28;20252;-95
2020/12/18 02:01:32;;;;;;;5.17;1.50;;;7.70;99.90;;;;;;4997567;28;20237;-93
2020/12/18 02:04:04;;;;;;;8.27;1.90;;;7.70;99.90;;;;;;4979767;28;20290;-94
2020/12/18 02:06:38;;;;;;;7.30;1.97;;;7.70;99.90;;;;;;4993008;28;20229;-92
2020/12/18 02:09:10;;;;;;;9.67;1.70;;;7.80;99.90;;;;;;4972678;28;20206;-93
2020/12/18 02:11:41;;;;;;;6.70;1.90;;;7.70;99.90;;;;;;4978914;28;20280;-94
2020/12/18 02:14:14;;;;;;;9.77;2.13;;;7.70;99.90;;;;;;4992904;28;20202;-95
2020/12/18 02:16:50;;;;;;;8.93;1.83;;;7.70;99.90;;;;;;5000426;28;20288;-94
2020/12/18 02:19:25;;;;;;;9.97;1.90;;;7.70;99.90;;;;;;4998736;28;20205;-95
2020/12/18 02:22:19;;;;;;;9.40;1.90;;;7.60;99.90;;;;;;5002848;28;20207;-96
2020/12/18 02:24:58;;;;;;;8.63;2.33;;;7.50;99.90;;;;;;4994803;28;20237;-94
2020/12/18 02:27:38;;;;;;;6.40;2.00;;;7.50;99.90;;;;;;4996737;28;20204;-96
2020/12/18 02:30:11;;;;;;;9.10;1.60;;;7.50;99.90;;;;;;5003891;28;20231;-91
2020/12/18 02:32:42;;;;;;;6.37;1.30;;;7.50;99.90;;;;;;4984433;28;20272;-92
2020/12/18 02:35:14;;;;;;;8.40;1.90;;;7.50;99.90;;;;;;5002190;28;20255;-92
2020/12/18 02:37:45;;;;;;;4.37;1.80;;;7.50;99.90;;;;;;4985899;28;20239;-93
2020/12/18 02:40:18;;;;;;;10.47;2.00;;;7.40;99.90;;;;;;5000946;28;20253;-93
2020/12/18 02:42:51;;;;;;;5.67;1.63;;;7.40;99.90;;;;;;4995066;28;20203;-92
2020/12/18 02:45:22;;;;;;;5.50;1.53;;;7.40;99.90;;;;;;4998770;28;20234;-93
2020/12/18 02:47:53;;;;;;;3.33;1.00;;;7.40;99.90;;;;;;4994391;28;20314;-93
2020/12/18 02:50:24;;;;;;;5.90;1.70;;;7.40;99.90;;;;;;4989351;28;20259;-92
2020/12/18 02:52:56;;;;;;;4.50;1.57;;;7.40;99.90;;;;;;4967639;28;20231;-92
2020/12/18 02:55:26;;;;;;;6.30;1.60;;;7.40;99.90;;;;;;4990573;28;21634;-92
2020/12/18 02:57:58;;;;;;;4.47;1.50;;;7.40;99.90;;;;;;4991030;28;20228;-92
2020/12/18 03:00:32;;;;;;;6.27;1.53;;;7.40;99.90;;;;;;4991733;28;20317;-91
2020/12/18 03:03:04;;;;;;;3.23;1.53;;;7.40;99.90;;;;;;4994660;28;20269;-93
2020/12/18 03:05:36;;;;;;;5.17;1.70;;;7.50;99.90;;;;;;4997626;28;20276;-92
2020/12/18 03:11:06;;;;;;;9.07;1.90;;;7.50;99.90;;;;;;5004156;28;20268;-91
2020/12/18 03:13:57;;;;;;;4.97;1.57;;;7.40;99.90;;;;;;5005527;28;20209;-91
2020/12/18 03:19:57;;;;;;;4.40;1.50;;;7.40;99.90;;;;;;5008410;28;20231;-92
2020/12/18 03:23:09;;;;;;;3.23;1.60;;;7.40;99.90;;;;;;5010044;28;20242;-92
2020/12/18 03:25:40;;;;;;;8.07;2.00;;;7.40;99.90;;;;;;4990681;28;20239;-93
2020/12/18 03:28:13;;;;;;;4.80;1.90;;;7.40;99.90;;;;;;5007813;28;20212;-92
2020/12/18 03:30:59;;;;;;;9.83;1.97;;;7.40;99.90;;;;;;5011306;28;20234;-92
2020/12/18 03:33:35;;;;;;;6.60;2.07;;;7.50;99.90;;;;;;4996011;28;20214;-91
2020/12/18 03:42:03;;;;;;;7.73;2.30;;;7.50;99.90;;;;;;4995569;28;20217;-92
2020/12/18 03:58:21;;;;;;;12.80;1.83;;;7.40;99.90;;;;;;5008381;28;20263;-92
2020/12/18 04:01:10;;;;;;;12.27;2.50;;;7.40;99.90;;;;;;5009500;28;20237;-93
2020/12/18 04:03:45;;;;;;;8.07;2.43;;;7.40;99.90;;;;;;5012952;28;20305;-92
2020/12/18 04:06:17;;;;;;;13.30;2.37;;;7.40;99.90;;;;;;4995016;28;20215;-92
2020/12/18 04:08:50;;;;;;;17.30;2.93;;;7.40;99.90;;;;;;5004729;28;20281;-91
2020/12/18 04:11:28;;;;;;;8.13;2.47;;;7.40;99.90;;;;;;4995616;28;20223;-92
2020/12/18 04:13:59;;;;;;;11.73;2.40;;;7.40;99.90;;;;;;5000687;28;20278;-92
2020/12/18 04:25:23;;;;;;;12.50;2.47;;;7.30;99.90;;;;;;4997962;28;20214;-93
2020/12/18 04:27:56;;;;;;;8.80;2.13;;;7.30;99.90;;;;;;5004762;28;20461;-93
2020/12/18 04:33:45;;;;;;;8.43;1.93;;;7.20;99.90;;;;;;5010587;28;20180;-93
2020/12/18 04:45:11;;;;;;;8.27;2.00;;;7.20;99.90;;;;;;5016030;28;20222;-94
2020/12/18 04:48:01;;;;;;;7.60;2.50;;;7.20;99.90;;;;;;5017762;28;20224;-92
2020/12/18 04:51:22;;;;;;;6.83;2.10;;;7.30;99.90;;;;;;5033811;28;20221;-93
2020/12/18 04:59:48;;;;;;;11.63;2.20;;;7.30;99.90;;;;;;5027884;28;20225;-91
2020/12/18 05:02:42;;;;;;;6.37;1.80;;;7.20;99.90;;;;;;5028383;28;20309;-91
2020/12/18 05:05:17;;;;;;;9.37;2.40;;;7.20;99.90;;;;;;5036372;28;20264;-92
2020/12/18 05:08:11;;;;;;;11.37;2.00;;;7.20;99.90;;;;;;5010168;28;20205;-93
2020/12/18 05:14:38;;;;;;;11.47;2.27;;;7.10;99.90;;;;;;5028653;28;20191;-91
2020/12/18 05:21:05;;;;;;;9.57;1.80;;;7.10;99.90;;;;;;5038313;28;20829;-93
2020/12/18 05:24:06;;;;;;;11.57;2.10;;;7.00;99.90;;;;;;5031329;28;20249;-93
2020/12/18 05:26:39;;;;;;;10.83;2.17;;;7.00;99.90;;;;;;5001986;28;20214;-91
2020/12/18 05:40:23;;;;;;;11.13;1.87;;;6.80;99.90;;;;;;5334254;23;20280;-93
2020/12/18 05:48:20;;;;;;;16.97;2.93;;;6.80;99.90;;;;;;5003727;28;20210;-92
2020/12/18 05:50:51;;;;;;;10.13;2.53;;;6.80;99.90;;;;;;4984066;28;20210;-92
2020/12/18 05:53:22;;;;;;;8.53;2.00;;;6.80;99.90;;;;;;4988787;28;20298;-92
2020/12/18 05:55:53;;;;;;;11.47;2.33;;;6.80;99.90;;;;;;4977279;28;20195;-93
2020/12/18 05:58:30;;;;;;;10.33;2.50;;;6.80;99.90;;;;;;4997185;28;20214;-91
2020/12/18 06:01:18;;;;;;;11.70;2.07;;;6.80;99.90;;;;;;4985961;28;20234;-92
2020/12/18 06:04:03;;;;;;;13.43;2.47;;;6.80;99.90;;;;;;5029153;23;20276;-91
2020/12/18 06:06:45;;;;;;;10.10;2.43;;;6.80;99.90;;;;;;5029499;28;20213;-90
2020/12/18 06:09:17;;;;;;;8.53;2.23;;;6.80;99.90;;;;;;5023797;28;20221;-91
2020/12/18 06:12:11;;;;;;;11.10;2.13;;;6.80;99.90;;;;;;5023252;28;20205;-91
2020/12/18 06:14:59;;;;;;;10.60;2.13;;;6.80;99.90;;;;;;5031225;28;20236;-92
2020/12/18 06:17:33;;;;;;;15.30;2.47;;;6.80;99.90;;;;;;5042543;28;20204;-92
2020/12/18 06:34:53;;;;;;;6.70;1.90;;;6.80;99.90;;;;;;5026962;28;20258;-93
2020/12/18 07:09:29;;;;;;;10.53;1.43;;;6.90;99.90;;;;;;5031835;28;20194;-92
2020/12/18 08:01:29;;;;;;;8.87;1.70;;;6.80;99.90;;;;;;5010454;28;20234;-94
2020/12/18 08:04:01;;;;;;;10.10;1.77;;;6.80;99.90;;;;;;4992851;28;20209;-91
2020/12/18 08:06:37;;;;;;;10.23;2.10;;;6.80;99.90;;;;;;5026695;28;20234;-92
2020/12/18 08:36:40;;;;;;;14.43;2.30;;;6.80;99.90;;;;;;5014138;28;20226;-93
2020/12/18 08:48:37;;;;;;;7.97;1.77;;;6.70;99.90;;;;;;5014995;28;20217;-93
2020/12/18 08:51:10;;;;;;;8.90;1.80;;;6.70;99.90;;;;;;5013524;28;20202;-93
2020/12/18 08:53:43;;;;;;;13.40;1.80;;;6.70;99.90;;;;;;5014574;28;20223;-93
2020/12/18 08:56:13;;;;;;;14.50;2.13;;;6.70;99.90;;;;;;5012367;28;20278;-92
2020/12/18 09:22:27;;;;;;;17.20;2.43;;;6.60;99.90;;;;;;5013460;28;20222;-93
2020/12/18 09:31:15;;;;;;;8.03;1.57;;;6.70;99.90;;;;;;5013163;28;20304;-93
2020/12/18 09:59:12;;;;;;;9.57;1.70;;;6.60;99.90;;;;;;4995241;28;20214;-94
2020/12/18 10:01:44;;;;;;;7.97;1.60;;;6.50;99.90;;;;;;4999861;28;20282;-95
2020/12/18 10:04:15;;;;;;;11.20;2.00;;;6.50;99.90;;;;;;5014475;28;20211;-94
2020/12/18 10:06:49;;;;;;;4.80;1.73;;;6.50;99.90;;;;;;5014357;28;20234;-94
2020/12/18 10:35:34;;;;;;;9.30;1.80;;;6.40;99.90;;;;;;5004603;28;20233;-93
2020/12/18 11:13:40;;;;;;;4.73;1.10;;;6.30;99.90;;;;;;5012788;28;20191;-94
2020/12/18 11:47:18;;;;;;;6.73;1.20;;;6.20;99.90;;;;;;4995433;28;20194;-94
2020/12/18 11:49:49;;;;;;;4.63;0.90;;;6.20;99.90;;;;;;5013791;28;20248;-95
2020/12/18 11:52:23;;;;;;;6.27;1.47;;;6.30;99.90;;;;;;5012449;28;20211;-94
2020/12/18 11:55:14;;;;;;;2.83;0.70;;;6.30;99.90;;;;;;5006774;28;20321;-94
2020/12/18 12:00:45;;;;;;;2.73;0.93;;;6.30;99.90;;;;;;5016397;28;20241;-94
2020/12/18 12:09:17;;;;;;;4.87;0.80;;;6.30;99.90;;;;;;5016551;28;20213;-95
2020/12/18 12:11:49;;;;;;;1.67;0.73;;;6.30;99.90;;;;;;5014485;28;20214;-93
2020/12/18 12:57:33;;;;;;;4.33;1.00;;;6.30;99.90;;;;;;5013595;28;20218;-96
2020/12/18 13:06:34;;;;;;;6.13;2.17;;;6.30;99.90;;;;;;5013634;28;20547;-95
2020/12/18 14:03:54;;;;;;;7.73;1.10;;;6.30;99.90;;;;;;5013685;28;20220;-93
2020/12/18 14:06:24;;;;;;;2.80;0.70;;;6.30;99.90;;;;;;5014198;28;20230;-94
2020/12/18 14:12:06;;;;;;;2.83;0.77;;;6.40;99.90;;;;;;5012283;28;20222;-94
2020/12/18 14:21:04;;;;;;;1.30;0.50;;;6.30;99.90;;;;;;4994373;28;20227;-94
2020/12/18 14:24:03;;;;;;;4.23;0.70;;;6.20;99.90;;;;;;4998285;28;20207;-94
2020/12/18 14:26:52;;;;;;;1.70;0.60;;;6.30;99.90;;;;;;4999792;28;20230;-95
2020/12/18 15:44:03;;;;;;;3.80;1.00;;;6.30;99.90;;;;;;5008698;28;20241;-93
2020/12/18 15:49:49;;;;;;;3.00;1.13;;;6.30;99.90;;;;;;5009818;28;20201;-93
2020/12/18 17:40:45;;;;;;;2.90;0.77;;;6.70;99.90;;;;;;5011233;28;20249;-94
2020/12/18 18:24:50;;;;;;;1.23;0.70;;;6.80;99.90;;;;;;5002527;28;20823;-89
2020/12/18 20:10:23;;;;;;;1.10;0.40;;;7.40;99.90;;;;;;5008404;28;20241;-92
2020/12/18 20:13:02;;;;;;;2.07;0.50;;;7.30;99.90;;;;;;5000260;28;20220;-92
2020/12/18 20:15:37;;;;;;;0.80;0.60;;;7.40;99.90;;;;;;5010866;28;20232;-92
2020/12/18 20:18:11;;;;;;;2.27;0.50;;;7.40;99.90;;;;;;5000153;28;20229;-93
2020/12/18 20:26:10;;;;;;;1.50;0.33;;;7.40;99.90;;;;;;5072840;23;20360;-94
2020/12/18 20:28:43;;;;;;;1.60;0.50;;;7.40;99.90;;;;;;5018807;28;20201;-94
2020/12/18 20:31:18;;;;;;;0.63;0.40;;;7.40;99.90;;;;;;5008140;28;20193;-93
2020/12/18 20:33:54;;;;;;;2.17;0.77;;;7.40;99.90;;;;;;5011883;28;20197;-91
2020/12/18 20:36:26;;;;;;;1.67;0.67;;;7.40;99.90;;;;;;5014601;28;20188;-91
2020/12/18 20:38:59;;;;;;;2.20;0.50;;;7.40;99.90;;;;;;4999694;28;20197;-91
2020/12/18 20:41:30;;;;;;;0.80;0.40;;;7.40;99.90;;;;;;5018353;28;20318;-91
2020/12/18 20:44:02;;;;;;;3.23;0.40;;;7.40;99.90;;;;;;5002102;28;20387;-91
2020/12/18 21:03:25;;;;;;;1.23;0.60;;;7.60;99.90;;;;;;5011695;28;20214;-91
2020/12/18 21:05:56;;;;;;;0.73;0.40;;;7.80;99.90;;;;;;5010803;28;20209;-91
2020/12/18 21:08:28;;;;;;;1.33;0.60;;;8.00;99.90;;;;;;5003879;28;20269;-91
2020/12/18 21:11:04;;;;;;;4.63;0.70;;;8.10;99.90;;;;;;5006627;28;20199;-90
2020/12/18 21:13:49;;;;;;;1.77;0.50;;;8.20;99.90;;;;;;5003837;28;20198;-89
2020/12/18 21:55:29;;;;;;;3.17;0.70;;;9.50;99.90;;;;;;5000210;28;20230;-94
2020/12/18 21:58:18;;;;;;;2.00;0.67;;;9.60;99.90;;;;;;5012082;28;20202;-93
2020/12/18 22:06:18;;;;;;;1.70;0.50;;;9.90;99.90;;;;;;5013205;28;20219;-93
2020/12/18 22:09:03;;;;;;;1.50;0.50;;;10.00;99.90;;;;;;5009045;28;20190;-93
2020/12/18 22:11:42;;;;;;;1.23;0.63;;;10.10;99.90;;;;;;5012032;28;20199;-94
2020/12/18 22:14:20;;;;;;;0.87;0.50;;;10.10;99.90;;;;;;5010106;28;20213;-94
2020/12/18 22:16:57;;;;;;;1.27;0.50;;;10.10;99.90;;;;;;5001312;28;20198;-93
2020/12/18 22:19:29;;;;;;;1.80;0.53;;;10.10;99.90;;;;;;5018465;28;20209;-93
2020/12/18 22:22:01;;;;;;;0.93;0.50;;;10.10;99.90;;;;;;5018104;28;20236;-93
2020/12/18 22:24:33;;;;;;;2.03;0.57;;;10.10;99.90;;;;;;5000658;28;20235;-93
2020/12/18 22:27:05;;;;;;;2.70;0.60;;;10.10;99.90;;;;;;5011949;28;20245;-92
2020/12/18 22:29:40;;;;;;;1.13;0.50;;;10.10;99.90;;;;;;4997562;28;20237;-93
2020/12/18 22:32:12;;;;;;;1.73;0.57;;;10.10;99.90;;;;;;4997336;28;20206;-94
2020/12/18 22:34:43;;;;;;;0.70;0.30;;;10.10;99.90;;;;;;5002590;28;20190;-93
2020/12/18 22:37:18;;;;;;;1.93;0.40;;;10.10;99.90;;;;;;5011750;28;20213;-93
2020/12/18 22:40:01;;;;;;;2.50;0.63;;;10.10;99.90;;;;;;5011607;28;20269;-94
2020/12/18 22:42:35;;;;;;;1.90;0.37;;;10.10;99.90;;;;;;5007562;28;20245;-94
2020/12/18 22:45:12;;;;;;;0.30;0.30;;;10.10;99.90;;;;;;4995506;28;20276;-93
2020/12/18 22:50:42;;;;;;;0.50;0.30;;;10.10;99.90;;;;;;4992916;28;20300;-93
2020/12/18 22:56:11;;;;;;;2.17;0.47;;;10.10;99.90;;;;;;4990473;28;20199;-94
2020/12/18 22:58:42;;;;;;;0.40;0.30;;;10.10;99.90;;;;;;4989614;28;20190;-94
2020/12/18 23:01:15;;;;;;;1.97;0.40;;;10.00;99.90;;;;;;5011797;28;20207;-94
2020/12/18 23:12:41;;;;;;;0.40;0.30;;;10.10;99.90;;;;;;5007790;28;20306;-93
2020/12/18 23:15:27;;;;;;;1.37;0.47;;;10.10;99.90;;;;;;5010737;28;20306;-94
2020/12/18 23:18:02;;;;;;;0.30;0.20;;;10.10;99.90;;;;;;4997461;28;20210;-93
2020/12/18 23:29:16;;;;;;;0.67;0.37;;;10.00;99.90;;;;;;5001589;28;20265;-93
2020/12/18 23:34:54;;;;;;;0.83;0.40;;;9.90;99.90;;;;;;5004317;28;20649;-93
2020/12/18 23:37:25;;;;;;;0.63;0.30;;;9.90;99.90;;;;;;5007455;28;20234;-94
2020/12/18 23:45:47;;;;;;;1.33;0.30;;;9.90;99.90;;;;;;5003151;28;20214;-93
2020/12/18 23:48:18;;;;;;;1.33;0.30;;;9.90;99.90;;;;;;5009667;28;20244;-94
2020/12/18 23:54:38;;;;;;;0.83;0.43;;;9.90;99.90;;;;;;5004604;28;20282;-94
2020/12/18 23:57:09;;;;;;;1.07;0.23;;;9.90;99.90;;;;;;5014875;28;20210;-94
2020/12/18 23:59:42;;;;;;;1.30;0.30;;;10.00;99.90;;;;;;4999620;28;20240;-94
